createdAt,value
2022-09-15T00:00:42.553Z,13.60
2022-09-15T00:02:45.633Z,13.07
2022-09-15T00:04:48.241Z,14.20
2022-09-15T00:06:50.814Z,13.20
2022-09-15T00:08:53.612Z,13.27
2022-09-15T00:10:59.062Z,13.30
2022-09-15T00:13:01.633Z,12.97
2022-09-15T00:15:05.449Z,13.47
2022-09-15T00:17:08.347Z,13.23
2022-09-15T00:19:11.691Z,13.47
2022-09-15T00:21:15.631Z,13.03
2022-09-15T00:23:18.328Z,11.63
2022-09-15T00:25:20.883Z,12.07
2022-09-15T00:27:25.078Z,12.60
2022-09-15T00:29:27.731Z,13.37
2022-09-15T00:31:31.379Z,13.13
2022-09-15T00:33:34.333Z,13.23
2022-09-15T00:35:39.166Z,12.50
2022-09-15T00:37:41.936Z,12.30
2022-09-15T00:39:44.614Z,11.83
2022-09-15T00:41:47.258Z,13.77
2022-09-15T00:43:54.579Z,11.67
2022-09-15T00:45:57.283Z,11.90
2022-09-15T00:48:00.108Z,12.40
2022-09-15T00:50:12.506Z,11.60
2022-09-15T00:52:16.618Z,12.70
2022-09-15T00:54:21.521Z,11.37
2022-09-15T00:56:24.174Z,11.90
2022-09-15T00:58:30.026Z,11.63
2022-09-15T01:00:34.343Z,12.20
2022-09-15T01:02:37.408Z,10.90
2022-09-15T01:04:40.390Z,11.87
2022-09-15T01:06:45.330Z,13.00
2022-09-15T01:08:52.066Z,11.33
2022-09-15T01:10:55.007Z,11.70
2022-09-15T01:13:02.582Z,11.23
2022-09-15T01:15:06.376Z,10.73
2022-09-15T01:17:13.123Z,11.13
2022-09-15T01:19:37.297Z,10.73
2022-09-15T01:21:42.666Z,10.83
2022-09-15T01:23:59.446Z,11.93
2022-09-15T01:26:17.995Z,11.10
2022-09-15T01:28:38.133Z,11.20
2022-09-15T01:30:42.575Z,10.43
2022-09-15T01:33:03.296Z,10.97
2022-09-15T01:35:11.856Z,10.40
2022-09-15T01:37:16.116Z,11.80
2022-09-15T01:39:21.899Z,10.40
2022-09-15T01:41:26.809Z,10.80
2022-09-15T01:43:29.671Z,10.73
2022-09-15T01:45:33.526Z,11.67
2022-09-15T01:47:38.080Z,10.10
2022-09-15T01:49:43.492Z,9.90
2022-09-15T01:51:46.071Z,10.73
2022-09-15T01:53:48.626Z,10.23
2022-09-15T01:55:54.567Z,11.30
2022-09-15T01:57:58.192Z,10.33
2022-09-15T02:00:00.940Z,9.93
2022-09-15T02:02:04.991Z,10.73
2022-09-15T02:04:11.995Z,10.90
2022-09-15T02:06:17.929Z,10.40
2022-09-15T02:08:25.061Z,10.17
2022-09-15T02:10:30.826Z,10.67
2022-09-15T02:12:36.155Z,10.50
2022-09-15T02:14:48.032Z,10.20
2022-09-15T02:16:52.066Z,9.87
2022-09-15T02:19:01.676Z,10.57
2022-09-15T02:21:09.388Z,9.93
2022-09-15T02:23:16.082Z,10.33
2022-09-15T02:25:20.331Z,11.67
2022-09-15T02:27:25.797Z,10.90
2022-09-15T02:29:28.391Z,9.63
2022-09-15T02:31:30.991Z,10.23
2022-09-15T02:33:35.340Z,9.80
2022-09-15T02:35:38.523Z,9.33
2022-09-15T02:37:42.468Z,9.20
2022-09-15T02:39:49.053Z,10.27
2022-09-15T02:41:51.745Z,9.50
2022-09-15T02:43:54.788Z,9.30
2022-09-15T02:45:57.387Z,8.87
2022-09-15T02:48:00.019Z,9.00
2022-09-15T02:50:02.586Z,9.23
2022-09-15T02:52:05.566Z,10.30
2022-09-15T02:54:09.541Z,9.97
2022-09-15T02:56:12.084Z,10.27
2022-09-15T02:58:14.617Z,9.27
2022-09-15T03:00:18.623Z,9.67
2022-09-15T03:02:21.217Z,9.70
2022-09-15T03:04:23.836Z,9.40
2022-09-15T03:06:29.083Z,8.90
2022-09-15T03:08:32.052Z,9.80
2022-09-15T03:10:35.886Z,9.40
2022-09-15T03:12:39.204Z,9.33
2022-09-15T03:14:41.766Z,9.00
2022-09-15T03:16:44.824Z,9.30
2022-09-15T03:18:48.250Z,9.77
2022-09-15T03:20:50.800Z,8.40
2022-09-15T03:22:53.386Z,8.67
2022-09-15T03:24:56.329Z,9.63
2022-09-15T03:27:00.154Z,9.60
2022-09-15T03:29:02.761Z,9.50
2022-09-15T03:31:06.113Z,9.23
2022-09-15T03:33:09.087Z,8.17
2022-09-15T03:35:11.642Z,8.77
2022-09-15T03:37:14.226Z,8.87
2022-09-15T03:39:17.128Z,8.87
2022-09-15T03:41:19.875Z,9.00
2022-09-15T03:43:23.738Z,8.63
2022-09-15T03:45:26.434Z,9.10
2022-09-15T03:47:29.479Z,8.40
2022-09-15T03:49:32.060Z,8.03
2022-09-15T03:51:34.603Z,8.70
2022-09-15T03:53:37.574Z,8.57
2022-09-15T03:55:40.588Z,7.77
2022-09-15T03:57:43.135Z,8.40
2022-09-15T03:59:47.065Z,8.10
2022-09-15T04:01:50.236Z,8.83
2022-09-15T04:03:53.206Z,8.47
2022-09-15T04:05:55.757Z,8.50
2022-09-15T04:07:58.325Z,7.97
2022-09-15T04:10:00.951Z,8.43
2022-09-15T04:12:04.290Z,8.53
2022-09-15T04:14:06.879Z,7.73
2022-09-15T04:16:12.095Z,7.90
2022-09-15T04:18:14.715Z,8.33
2022-09-15T04:20:17.898Z,7.87
2022-09-15T04:22:20.452Z,8.00
2022-09-15T04:24:23.007Z,7.43
2022-09-15T04:26:27.355Z,7.50
2022-09-15T04:28:30.519Z,7.70
2022-09-15T04:30:33.074Z,7.10
2022-09-15T04:32:36.987Z,6.77
2022-09-15T04:34:41.495Z,7.57
2022-09-15T04:36:44.619Z,6.60
2022-09-15T04:38:47.284Z,6.90
2022-09-15T04:40:50.196Z,6.40
2022-09-15T04:42:52.765Z,6.57
2022-09-15T04:44:55.370Z,6.90
2022-09-15T04:46:58.419Z,7.07
2022-09-15T04:49:02.368Z,6.50
2022-09-15T04:51:06.378Z,6.83
2022-09-15T04:53:08.918Z,6.47
2022-09-15T04:55:11.968Z,6.50
2022-09-15T04:57:14.510Z,6.43
2022-09-15T04:59:17.648Z,6.20
2022-09-15T05:01:21.230Z,6.17
2022-09-15T05:03:24.283Z,5.70
2022-09-15T05:05:28.209Z,6.00
2022-09-15T05:07:30.764Z,6.40
2022-09-15T05:09:33.344Z,5.77
2022-09-15T05:11:36.280Z,6.17
2022-09-15T05:13:39.378Z,6.43
2022-09-15T05:15:41.969Z,5.90
2022-09-15T05:17:44.516Z,6.53
2022-09-15T05:19:47.600Z,5.60
2022-09-15T05:21:51.613Z,6.50
2022-09-15T05:23:54.306Z,5.00
2022-09-15T05:25:57.317Z,5.30
2022-09-15T05:28:00.356Z,6.00
2022-09-15T05:30:31.974Z,5.50
2022-09-15T05:32:25.615Z,6.33
2022-09-15T05:34:28.182Z,5.50
2022-09-15T05:36:31.245Z,5.60
2022-09-15T05:38:35.146Z,5.77
2022-09-15T05:40:37.774Z,5.30
2022-09-15T05:42:40.391Z,5.40
2022-09-15T05:44:43.349Z,5.37
2022-09-15T05:46:45.952Z,5.67
2022-09-15T05:48:48.522Z,5.60
2022-09-15T05:50:51.265Z,5.10
2022-09-15T05:52:54.308Z,5.13
2022-09-15T05:54:59.251Z,4.83
2022-09-15T05:57:02.031Z,5.27
2022-09-15T05:59:04.578Z,5.43
2022-09-15T06:01:08.367Z,5.10
2022-09-15T06:03:11.578Z,5.10
2022-09-15T06:05:14.365Z,5.00
2022-09-15T06:07:17.453Z,4.70
2022-09-15T06:09:20.395Z,4.73
2022-09-15T06:11:25.014Z,4.90
2022-09-15T06:13:27.585Z,4.90
2022-09-15T06:15:30.442Z,3.97
2022-09-15T06:17:33.084Z,4.60
2022-09-15T06:19:35.870Z,4.70
2022-09-15T06:21:38.441Z,4.77
2022-09-15T06:23:41.639Z,4.83
2022-09-15T06:25:44.199Z,4.17
2022-09-15T06:27:49.807Z,4.60
2022-09-15T06:29:52.375Z,4.27
2022-09-15T06:31:55.059Z,4.20
2022-09-15T06:33:57.903Z,4.63
2022-09-15T06:36:02.877Z,4.40
2022-09-15T06:38:05.930Z,4.83
2022-09-15T06:40:10.099Z,4.33
2022-09-15T06:42:13.999Z,4.33
2022-09-15T06:44:18.487Z,4.10
2022-09-15T06:46:22.445Z,4.50
2022-09-15T06:48:25.346Z,3.97
2022-09-15T06:50:27.999Z,4.23
2022-09-15T06:52:30.697Z,4.77
2022-09-15T06:54:33.918Z,4.33
2022-09-15T06:56:38.343Z,4.50
2022-09-15T06:58:41.830Z,4.20
2022-09-15T07:00:46.261Z,4.90
2022-09-15T07:02:49.978Z,5.07
2022-09-15T07:04:52.664Z,4.30
2022-09-15T07:06:55.234Z,4.60
2022-09-15T07:08:58.365Z,4.63
2022-09-15T07:11:01.411Z,5.00
2022-09-15T07:13:03.977Z,5.13
2022-09-15T07:15:07.317Z,4.70
2022-09-15T07:17:11.177Z,5.10
2022-09-15T07:19:14.207Z,5.00
2022-09-15T07:21:18.285Z,4.77
2022-09-15T07:23:22.050Z,4.90
2022-09-15T07:25:24.584Z,4.17
2022-09-15T07:27:31.485Z,4.37
2022-09-15T07:29:37.712Z,5.00
2022-09-15T07:31:40.649Z,4.83
2022-09-15T07:33:44.719Z,4.87
2022-09-15T07:35:47.645Z,5.10
2022-09-15T07:37:51.784Z,4.97
2022-09-15T07:39:54.385Z,5.10
2022-09-15T07:41:57.269Z,5.20
2022-09-15T07:44:00.692Z,5.10
2022-09-15T07:46:03.423Z,5.20
2022-09-15T07:48:06.325Z,4.87
2022-09-15T07:50:10.641Z,5.50
2022-09-15T07:52:13.565Z,4.93
2022-09-15T07:54:19.575Z,5.80
2022-09-15T07:56:24.665Z,5.17
2022-09-15T07:58:27.364Z,5.57
2022-09-15T08:00:30.440Z,5.60
2022-09-15T08:02:33.061Z,6.13
2022-09-15T08:04:35.639Z,5.70
2022-09-15T08:06:39.469Z,5.73
2022-09-15T08:08:43.928Z,6.10
2022-09-15T08:10:46.496Z,5.73
2022-09-15T08:12:49.098Z,6.33
2022-09-15T08:14:51.666Z,6.07
2022-09-15T08:16:54.721Z,5.83
2022-09-15T08:18:57.276Z,5.63
2022-09-15T08:20:59.862Z,5.90
2022-09-15T08:23:03.713Z,6.17
2022-09-15T08:25:07.261Z,6.10
2022-09-15T08:27:10.605Z,6.37
2022-09-15T08:29:13.459Z,6.63
2022-09-15T08:31:16.112Z,5.60
2022-09-15T08:33:18.756Z,6.30
2022-09-15T08:35:21.553Z,6.30
2022-09-15T08:37:24.134Z,7.67
2022-09-15T08:39:28.720Z,6.10
2022-09-15T08:41:32.963Z,5.70
2022-09-15T08:43:37.338Z,6.97
2022-09-15T08:45:44.931Z,5.90
2022-09-15T08:47:47.899Z,15.37
2022-09-15T08:49:56.751Z,6.40
2022-09-15T08:52:00.612Z,6.40
2022-09-15T08:54:06.645Z,5.87
2022-09-15T08:56:14.000Z,6.60
2022-09-15T08:58:18.100Z,6.03
2022-09-15T09:00:20.752Z,5.50
2022-09-15T09:02:39.259Z,6.20
2022-09-15T09:04:48.182Z,5.77
2022-09-15T09:06:55.154Z,5.60
2022-09-15T09:09:04.927Z,5.60
2022-09-15T09:11:14.767Z,6.73
2022-09-15T09:13:23.804Z,6.07
2022-09-15T09:15:32.553Z,5.40
2022-09-15T09:17:44.618Z,5.90
2022-09-15T09:19:58.428Z,6.20
2022-09-15T09:22:02.986Z,5.93
2022-09-15T09:24:07.369Z,6.10
2022-09-15T09:26:10.659Z,5.80
2022-09-15T09:28:32.394Z,6.10
2022-09-15T09:30:35.346Z,6.37
2022-09-15T09:32:41.465Z,7.70
2022-09-15T09:34:45.031Z,6.83
2022-09-15T09:36:48.329Z,5.50
2022-09-15T09:38:51.271Z,5.57
2022-09-15T09:40:56.521Z,6.00
2022-09-15T09:43:01.351Z,5.67
2022-09-15T09:45:06.093Z,6.60
2022-09-15T09:47:09.130Z,5.70
2022-09-15T09:49:16.756Z,4.83
2022-09-15T09:51:31.120Z,5.33
2022-09-15T09:53:34.127Z,5.00
2022-09-15T09:55:37.270Z,5.03
2022-09-15T09:57:40.832Z,5.30
2022-09-15T09:59:44.111Z,5.83
2022-09-15T10:02:04.813Z,5.40
2022-09-15T10:04:13.497Z,4.90
2022-09-15T10:06:17.065Z,5.40
2022-09-15T10:08:19.922Z,5.20
2022-09-15T10:10:24.043Z,4.90
2022-09-15T10:12:31.458Z,5.13
2022-09-15T10:14:36.364Z,5.00
2022-09-15T10:16:39.032Z,5.07
2022-09-15T10:18:43.585Z,5.50
2022-09-15T10:20:48.300Z,5.17
2022-09-15T10:22:50.858Z,5.37
2022-09-15T10:24:54.153Z,5.50
2022-09-15T10:27:07.332Z,5.70
2022-09-15T10:29:13.566Z,5.60
2022-09-15T10:31:28.279Z,5.17
2022-09-15T10:33:31.876Z,4.90
2022-09-15T10:35:37.171Z,5.13
2022-09-15T10:37:49.891Z,4.93
2022-09-15T10:39:54.043Z,4.70
2022-09-15T10:42:00.194Z,5.57
2022-09-15T10:44:11.869Z,4.90
2022-09-15T10:46:15.271Z,6.27
2022-09-15T10:48:26.546Z,5.93
2022-09-15T10:50:30.454Z,5.80
2022-09-15T10:52:39.725Z,8.57
2022-09-15T10:54:51.316Z,14.97
2022-09-15T10:56:57.118Z,6.10
2022-09-15T10:59:17.473Z,6.10
2022-09-15T11:01:29.398Z,5.10
2022-09-15T11:03:41.537Z,4.87
2022-09-15T11:05:53.754Z,4.50
2022-09-15T11:08:16.885Z,5.20
2022-09-15T11:10:21.353Z,4.77
2022-09-15T11:12:32.649Z,9.00
2022-09-15T11:14:43.038Z,5.17
2022-09-15T11:16:53.633Z,4.90
2022-09-15T11:19:03.317Z,5.57
2022-09-15T11:21:14.693Z,4.63
2022-09-15T11:23:20.652Z,4.90
2022-09-15T11:25:23.977Z,4.70
2022-09-15T11:27:28.321Z,4.13
2022-09-15T11:29:32.681Z,5.03
2022-09-15T11:31:38.701Z,6.23
2022-09-15T11:33:44.295Z,5.50
2022-09-15T11:35:47.783Z,5.20
2022-09-15T11:37:51.116Z,7.80
2022-09-15T11:39:57.608Z,8.60
2022-09-15T11:42:02.581Z,5.43
2022-09-15T11:44:08.633Z,7.10
2022-09-15T11:46:14.451Z,5.57
2022-09-15T11:48:18.517Z,4.40
2022-09-15T11:50:23.940Z,4.90
2022-09-15T11:52:39.366Z,6.80
2022-09-15T11:54:44.437Z,13.63
2022-09-15T11:56:48.481Z,13.37
2022-09-15T11:58:57.995Z,15.77
2022-09-15T12:01:01.872Z,11.67
2022-09-15T12:03:11.617Z,9.30
2022-09-15T12:05:16.186Z,5.50
2022-09-15T12:07:23.165Z,5.17
2022-09-15T12:09:25.723Z,5.17
2022-09-15T12:11:30.318Z,4.60
2022-09-15T12:13:34.504Z,5.10
2022-09-15T12:15:37.122Z,5.13
2022-09-15T12:17:42.995Z,5.20
2022-09-15T12:19:50.500Z,4.63
2022-09-15T12:21:55.031Z,4.70
2022-09-15T12:23:58.825Z,4.43
2022-09-15T12:26:06.028Z,5.27
2022-09-15T12:28:27.727Z,4.80
2022-09-15T12:30:49.844Z,4.50
2022-09-15T12:32:52.405Z,4.80
2022-09-15T12:34:58.694Z,4.43
2022-09-15T12:37:08.356Z,4.80
2022-09-15T12:39:26.650Z,4.77
2022-09-15T12:41:29.199Z,4.77
2022-09-15T12:43:32.231Z,4.50
2022-09-15T12:45:35.814Z,4.60
2022-09-15T12:47:40.471Z,4.90
2022-09-15T12:49:44.138Z,4.30
2022-09-15T12:51:49.286Z,4.90
2022-09-15T12:53:54.114Z,4.37
2022-09-15T12:55:57.898Z,4.60
2022-09-15T12:58:01.151Z,5.03
2022-09-15T13:00:17.578Z,4.90
2022-09-15T13:02:44.464Z,4.47
2022-09-15T13:04:55.139Z,4.83
2022-09-15T13:07:22.392Z,5.07
2022-09-15T13:09:27.312Z,4.70
2022-09-15T13:11:37.407Z,4.80
2022-09-15T13:13:44.046Z,4.20
2022-09-15T13:15:48.292Z,4.73
2022-09-15T13:17:53.178Z,4.90
2022-09-15T13:19:59.712Z,5.00
2022-09-15T13:22:04.840Z,4.63
2022-09-15T13:24:08.510Z,5.50
2022-09-15T13:26:13.292Z,5.57
2022-09-15T13:28:22.152Z,5.80
2022-09-15T13:30:31.668Z,6.03
2022-09-15T13:32:40.598Z,5.63
2022-09-15T13:35:10.131Z,5.97
2022-09-15T13:40:07.828Z,5.57
2022-09-15T13:42:21.510Z,5.33
2022-09-15T13:44:54.265Z,4.87
2022-09-15T13:47:04.071Z,5.10
2022-09-15T13:49:17.303Z,5.40
2022-09-15T13:51:25.039Z,5.27
2022-09-15T13:53:35.058Z,5.13
2022-09-15T13:55:38.664Z,6.20
2022-09-15T14:00:11.709Z,5.57
2022-09-15T14:02:19.343Z,4.70
2022-09-15T14:04:23.051Z,4.70
2022-09-15T14:06:30.192Z,4.80
2022-09-15T14:08:33.580Z,4.90
2022-09-15T14:10:39.894Z,4.43
2022-09-15T14:12:42.696Z,5.60
2022-09-15T14:14:54.172Z,4.83
2022-09-15T14:16:57.957Z,5.00
2022-09-15T14:19:01.523Z,5.00
2022-09-15T14:21:05.176Z,5.00
2022-09-15T14:23:16.580Z,5.30
2022-09-15T14:25:19.690Z,5.13
2022-09-15T14:27:24.050Z,5.47
2022-09-15T14:29:26.918Z,5.90
2022-09-15T14:31:31.090Z,7.60
2022-09-15T14:33:37.814Z,5.90
2022-09-15T14:35:40.613Z,5.40
2022-09-15T14:37:43.179Z,6.57
2022-09-15T14:39:51.282Z,6.00
2022-09-15T14:41:54.454Z,4.90
2022-09-15T14:43:57.060Z,5.40
2022-09-15T14:46:10.954Z,5.70
2022-09-15T14:48:15.986Z,5.30
2022-09-15T14:50:20.432Z,5.07
2022-09-15T14:52:25.698Z,4.90
2022-09-15T14:54:30.145Z,5.70
2022-09-15T14:56:34.846Z,5.90
2022-09-15T14:58:38.568Z,5.63
2022-09-15T15:00:43.162Z,5.93
2022-09-15T15:02:51.827Z,4.90
2022-09-15T15:04:57.437Z,4.63
2022-09-15T15:07:01.852Z,5.57
2022-09-15T15:09:07.622Z,5.23
2022-09-15T15:11:10.946Z,4.80
2022-09-15T15:13:16.050Z,5.93
2022-09-15T15:15:18.831Z,5.13
2022-09-15T15:17:27.597Z,4.77
2022-09-15T15:19:33.621Z,4.00
2022-09-15T15:21:38.470Z,7.23
2022-09-15T15:23:46.940Z,4.57
2022-09-15T15:25:50.182Z,4.60
2022-09-15T15:27:53.241Z,4.80
2022-09-15T15:29:57.367Z,3.60
2022-09-15T15:32:04.875Z,5.10
2022-09-15T15:34:08.117Z,4.23
2022-09-15T15:36:14.889Z,4.93
2022-09-15T15:38:25.233Z,5.33
2022-09-15T15:40:28.054Z,4.10
2022-09-15T15:42:31.198Z,4.10
2022-09-15T15:44:34.474Z,3.70
2022-09-15T15:46:51.819Z,3.93
2022-09-15T15:48:54.693Z,5.10
2022-09-15T15:50:57.701Z,3.77
2022-09-15T15:53:00.720Z,46.90
2022-09-15T15:55:03.664Z,4.20
2022-09-15T15:57:21.752Z,4.50
2022-09-15T15:59:24.501Z,4.17
2022-09-15T16:01:27.148Z,5.97
2022-09-15T16:03:31.410Z,4.77
2022-09-15T16:05:34.170Z,4.10
2022-09-15T16:07:36.812Z,4.03
2022-09-15T16:09:39.355Z,4.30
2022-09-15T16:11:42.830Z,3.80
2022-09-15T16:13:45.508Z,3.90
2022-09-15T16:15:48.846Z,3.83
2022-09-15T16:17:51.525Z,4.70
2022-09-15T16:19:55.889Z,4.37
2022-09-15T16:21:58.717Z,4.20
2022-09-15T16:24:01.299Z,4.40
2022-09-15T16:26:04.515Z,4.20
2022-09-15T16:28:07.389Z,3.77
2022-09-15T16:30:12.013Z,3.67
2022-09-15T16:32:19.252Z,8.67
2022-09-15T16:34:22.502Z,5.83
2022-09-15T16:36:26.823Z,4.23
2022-09-15T16:38:29.371Z,4.13
2022-09-15T16:40:32.072Z,3.63
2022-09-15T16:42:34.666Z,3.73
2022-09-15T16:44:37.628Z,3.50
2022-09-15T16:46:42.218Z,3.90
2022-09-15T16:48:47.094Z,4.30
2022-09-15T16:51:09.581Z,3.30
2022-09-15T16:53:15.273Z,3.70
2022-09-15T16:55:21.455Z,3.80
2022-09-15T16:57:24.046Z,3.77
2022-09-15T16:59:27.005Z,3.27
2022-09-15T17:01:29.983Z,3.30
2022-09-15T17:03:33.394Z,3.33
2022-09-15T17:05:38.281Z,3.37
2022-09-15T17:07:40.872Z,3.27
2022-09-15T17:09:45.047Z,3.00
2022-09-15T17:11:47.738Z,3.30
2022-09-15T17:13:51.294Z,3.30
2022-09-15T17:15:54.917Z,2.93
2022-09-15T17:17:57.762Z,2.80
2022-09-15T17:20:00.564Z,3.10
2022-09-15T17:22:03.670Z,3.00
2022-09-15T17:24:06.686Z,2.50
2022-09-15T17:26:13.615Z,3.37
2022-09-15T17:28:16.359Z,2.97
2022-09-15T17:30:19.986Z,3.00
2022-09-15T17:32:22.646Z,3.07
2022-09-15T17:34:25.261Z,2.70
2022-09-15T17:36:28.326Z,3.23
2022-09-15T17:38:31.871Z,2.70
2022-09-15T17:40:34.717Z,3.00
2022-09-15T17:42:38.773Z,2.57
2022-09-15T17:44:41.367Z,3.27
2022-09-15T17:46:44.466Z,3.07
2022-09-15T17:48:47.181Z,2.87
2022-09-15T17:50:50.563Z,2.40
2022-09-15T17:52:53.639Z,2.90
2022-09-15T17:54:56.478Z,2.97
2022-09-15T17:56:59.253Z,2.83
2022-09-15T17:59:03.187Z,2.97
2022-09-15T18:01:06.395Z,2.73
2022-09-15T18:03:16.448Z,2.97
2022-09-15T18:05:20.816Z,2.63
2022-09-15T18:07:23.457Z,2.70
2022-09-15T18:09:26.946Z,2.60
2022-09-15T18:11:32.143Z,2.63
2022-09-15T18:13:35.018Z,2.40
2022-09-15T18:15:40.397Z,2.93
2022-09-15T18:17:43.485Z,2.90
2022-09-15T18:19:46.267Z,2.43
2022-09-15T18:21:51.490Z,2.70
2022-09-15T18:23:54.739Z,3.13
2022-09-15T18:25:57.986Z,3.30
2022-09-15T18:28:00.852Z,2.60
2022-09-15T18:30:03.812Z,2.87
2022-09-15T18:32:07.712Z,3.00
2022-09-15T18:34:10.641Z,2.77
2022-09-15T18:36:13.514Z,2.70
2022-09-15T18:38:16.278Z,3.13
2022-09-15T18:40:19.182Z,2.77
2022-09-15T18:42:23.329Z,2.60
2022-09-15T18:44:27.491Z,3.10
2022-09-15T18:46:30.099Z,2.97
2022-09-15T18:48:34.094Z,3.47
2022-09-15T18:50:37.248Z,2.90
2022-09-15T18:52:40.758Z,3.23
2022-09-15T18:54:43.362Z,2.77
2022-09-15T18:56:45.933Z,3.07
2022-09-15T18:58:48.997Z,3.37
2022-09-15T19:00:51.915Z,2.90
2022-09-15T19:03:03.238Z,3.13
2022-09-15T19:05:07.773Z,2.63
2022-09-15T19:07:11.014Z,3.40
2022-09-15T19:09:13.605Z,3.70
2022-09-15T19:11:16.216Z,3.30
2022-09-15T19:13:18.794Z,3.60
2022-09-15T19:15:24.979Z,2.57
2022-09-15T19:17:27.677Z,3.33
2022-09-15T19:19:30.261Z,3.17
2022-09-15T19:21:34.142Z,3.20
2022-09-15T19:23:37.166Z,2.70
2022-09-15T19:25:41.672Z,2.63
2022-09-15T19:27:44.217Z,3.00
2022-09-15T19:29:46.881Z,3.10
2022-09-15T19:31:49.465Z,3.30
2022-09-15T19:33:52.181Z,3.50
2022-09-15T19:36:10.771Z,3.00
2022-09-15T19:38:18.668Z,3.37
2022-09-15T19:40:23.597Z,2.53
2022-09-15T19:42:26.239Z,2.97
2022-09-15T19:44:28.864Z,3.67
2022-09-15T19:46:31.520Z,2.53
2022-09-15T19:48:38.637Z,3.03
2022-09-15T19:50:44.378Z,3.10
2022-09-15T19:52:46.932Z,2.70
2022-09-15T19:54:50.783Z,2.80
2022-09-15T19:56:53.917Z,2.93
2022-09-15T19:58:57.536Z,2.70
2022-09-15T20:01:00.313Z,2.30
2022-09-15T20:03:03.056Z,3.20
2022-09-15T20:05:09.616Z,3.17
2022-09-15T20:07:12.455Z,2.93
2022-09-15T20:09:16.021Z,2.53
2022-09-15T20:11:19.928Z,2.60
2022-09-15T20:13:22.591Z,2.40
2022-09-15T20:15:25.280Z,3.10
2022-09-15T20:17:27.899Z,3.13
2022-09-15T20:19:31.164Z,2.83
2022-09-15T20:21:51.620Z,2.77
2022-09-15T20:23:55.813Z,2.83
2022-09-15T20:25:58.912Z,3.37
2022-09-15T20:28:03.276Z,2.57
2022-09-15T20:30:07.206Z,2.47
2022-09-15T20:32:09.850Z,2.67
2022-09-15T20:34:13.124Z,2.30
2022-09-15T20:36:16.566Z,2.50
2022-09-15T20:38:19.420Z,2.50
2022-09-15T20:40:22.053Z,2.33
2022-09-15T20:42:25.105Z,2.40
2022-09-15T20:44:28.963Z,2.60
2022-09-15T20:46:31.759Z,2.53
2022-09-15T20:48:36.313Z,2.60
2022-09-15T20:50:39.206Z,2.23
2022-09-15T20:52:41.896Z,2.50
2022-09-15T20:54:44.503Z,2.70
2022-09-15T20:56:47.084Z,2.27
2022-09-15T20:58:49.939Z,2.43
2022-09-15T21:01:03.002Z,2.20
2022-09-15T21:03:05.580Z,2.30
2022-09-15T21:05:10.551Z,2.40
2022-09-15T21:07:14.073Z,2.70
2022-09-15T21:09:17.008Z,2.30
2022-09-15T21:11:20.382Z,2.30
2022-09-15T21:13:23.019Z,2.40
2022-09-15T21:15:25.970Z,2.33
2022-09-15T21:17:29.878Z,2.13
2022-09-15T21:19:32.450Z,2.30
2022-09-15T21:21:35.228Z,2.60
2022-09-15T21:23:40.106Z,2.13
2022-09-15T21:25:42.770Z,2.10
2022-09-15T21:27:46.823Z,2.10
2022-09-15T21:29:49.804Z,2.57
2022-09-15T21:31:52.740Z,2.40
2022-09-15T21:33:57.651Z,2.00
2022-09-15T21:36:05.177Z,1.93
2022-09-15T21:38:07.752Z,2.20
2022-09-15T21:40:11.156Z,2.57
2022-09-15T21:42:14.973Z,1.93
2022-09-15T21:44:17.551Z,2.10
2022-09-15T21:46:20.362Z,2.10
2022-09-15T21:48:22.932Z,2.43
2022-09-15T21:50:27.222Z,2.33
2022-09-15T21:52:31.392Z,2.40
2022-09-15T21:54:34.038Z,1.90
2022-09-15T21:56:37.304Z,2.10
2022-09-15T21:58:42.959Z,2.10
2022-09-15T22:00:45.927Z,2.00
2022-09-15T22:02:52.219Z,2.43
2022-09-15T22:04:56.378Z,2.00
2022-09-15T22:07:00.250Z,2.20
2022-09-15T22:09:03.797Z,2.07
2022-09-15T22:11:06.772Z,2.03
2022-09-15T22:13:10.009Z,2.47
2022-09-15T22:15:12.611Z,2.40
2022-09-15T22:17:15.740Z,1.90
2022-09-15T22:19:18.724Z,2.20
2022-09-15T22:21:22.270Z,2.20
2022-09-15T22:23:26.321Z,2.47
2022-09-15T22:25:28.927Z,2.10
2022-09-15T22:27:32.150Z,1.70
2022-09-15T22:29:34.727Z,2.40
2022-09-15T22:31:37.418Z,1.90
2022-09-15T22:33:40.982Z,1.93
2022-09-15T22:35:47.809Z,2.20
2022-09-15T22:37:50.441Z,2.00
2022-09-15T22:39:59.295Z,2.10
2022-09-15T22:42:02.281Z,1.90
2022-09-15T22:44:05.494Z,1.80
2022-09-15T22:46:08.435Z,2.07
2022-09-15T22:48:11.134Z,1.83
2022-09-15T22:50:13.747Z,1.57
2022-09-15T22:52:16.786Z,2.00
2022-09-15T22:54:19.663Z,1.90
2022-09-15T22:56:24.092Z,1.90
2022-09-15T22:58:26.705Z,1.93
2022-09-15T23:00:30.019Z,1.83
2022-09-15T23:02:32.659Z,1.80
2022-09-15T23:04:35.244Z,2.10
2022-09-15T23:06:37.839Z,1.97
2022-09-15T23:08:40.880Z,1.50
2022-09-15T23:10:43.513Z,1.60
2022-09-15T23:12:47.350Z,2.03
2022-09-15T23:14:49.935Z,2.47
2022-09-15T23:16:52.800Z,1.87
2022-09-15T23:18:55.465Z,1.63
2022-09-15T23:20:59.169Z,1.93
2022-09-15T23:23:01.941Z,1.57
2022-09-15T23:25:05.398Z,1.90
2022-09-15T23:27:08.042Z,2.00
2022-09-15T23:29:11.947Z,2.00
2022-09-15T23:31:15.018Z,1.70
2022-09-15T23:33:17.706Z,1.90
2022-09-15T23:35:20.368Z,1.67
2022-09-15T23:37:22.952Z,1.60
2022-09-15T23:39:26.074Z,1.73
2022-09-15T23:41:28.646Z,1.60
2022-09-15T23:43:33.073Z,1.90
2022-09-15T23:45:36.999Z,1.50
2022-09-15T23:47:39.965Z,1.97
2022-09-15T23:49:42.555Z,1.90
2022-09-15T23:51:45.161Z,1.60
2022-09-15T23:53:47.786Z,1.53
2022-09-15T23:55:50.927Z,1.77
2022-09-15T23:57:53.497Z,1.57
2022-09-15T23:59:56.080Z,1.47
